createdAt,value
2022-09-09T00:02:13.764Z,101150.78
2022-09-09T00:07:45.576Z,101145.63
2022-09-09T00:13:20.541Z,101144.44
2022-09-09T00:18:54.557Z,101148.91
2022-09-09T00:24:26.723Z,101149.38
2022-09-09T00:29:59.771Z,101145.09
2022-09-09T00:35:26.582Z,101153.28
2022-09-09T00:40:53.844Z,101159.97
2022-09-09T00:46:57.063Z,101160.56
2022-09-09T00:52:34.329Z,101161.56
2022-09-09T00:57:59.793Z,101163.06
2022-09-09T01:03:35.465Z,101166.97
2022-09-09T01:09:09.328Z,101159.41
2022-09-09T01:14:51.678Z,101163.59
2022-09-09T01:20:20.364Z,101166.72
2022-09-09T01:26:15.515Z,101170.78
2022-09-09T01:31:43.056Z,101175.78
2022-09-09T01:37:10.848Z,101175.78
2022-09-09T01:42:37.961Z,101184.16
2022-09-09T01:48:03.876Z,101181.19
2022-09-09T01:53:43.844Z,101169.16
2022-09-09T01:59:28.984Z,101172.81
2022-09-09T02:04:59.049Z,101169.13
2022-09-09T02:10:26.894Z,101168.41
2022-09-09T02:16:08.474Z,101183.22
2022-09-09T02:21:34.669Z,101181.66
2022-09-09T02:27:03.965Z,101168.44
2022-09-09T02:32:31.791Z,101181.97
2022-09-09T02:38:01.095Z,101183.50
2022-09-09T02:43:28.332Z,101189.44
2022-09-09T02:49:01.807Z,101183.22
2022-09-09T02:54:34.237Z,101198.84
2022-09-09T03:00:03.818Z,101203.44
2022-09-09T03:05:32.836Z,101204.56
2022-09-09T03:10:57.603Z,101212.56
2022-09-09T03:16:24.168Z,101214.59
2022-09-09T03:21:53.937Z,101218.00
2022-09-09T03:27:20.526Z,101226.44
2022-09-09T03:32:48.918Z,101232.34
2022-09-09T03:38:15.344Z,101225.22
2022-09-09T03:43:43.043Z,101232.34
2022-09-09T03:49:06.718Z,101239.84
2022-09-09T03:54:34.062Z,101243.78
2022-09-09T03:59:59.035Z,101241.03
2022-09-09T04:05:23.656Z,101244.50
2022-09-09T04:10:51.718Z,101239.84
2022-09-09T04:16:16.415Z,101251.53
2022-09-09T04:21:45.814Z,101251.84
2022-09-09T04:27:13.330Z,101259.06
2022-09-09T04:32:40.748Z,101261.72
2022-09-09T04:38:07.469Z,101263.69
2022-09-09T04:43:36.068Z,101267.31
2022-09-09T04:49:02.367Z,101265.94
2022-09-09T04:54:29.854Z,101274.47
2022-09-09T04:59:55.416Z,101272.59
2022-09-09T05:05:20.776Z,101273.13
2022-09-09T05:10:47.042Z,101265.84
2022-09-09T05:16:14.155Z,101263.53
2022-09-09T05:21:38.817Z,101270.56
2022-09-09T05:27:03.982Z,101261.31
2022-09-09T05:32:29.319Z,101269.31
2022-09-09T05:37:54.208Z,101261.00
2022-09-09T05:43:19.434Z,101270.31
2022-09-09T05:48:48.306Z,101265.97
2022-09-09T05:54:16.361Z,101266.75
2022-09-09T05:59:44.246Z,101270.59
2022-09-09T06:05:11.801Z,101277.53
2022-09-09T06:10:37.309Z,101276.38
2022-09-09T06:16:02.093Z,101278.81
2022-09-09T06:21:30.318Z,101284.63
2022-09-09T06:26:55.877Z,101300.34
2022-09-09T06:32:25.016Z,101297.91
2022-09-09T06:37:50.401Z,101297.28
2022-09-09T06:43:16.159Z,101306.91
2022-09-09T06:48:47.361Z,101306.81
2022-09-09T06:54:14.924Z,101320.47
2022-09-09T06:59:43.584Z,101324.13
2022-09-09T07:05:09.186Z,101324.31
2022-09-09T07:10:35.879Z,101312.94
2022-09-09T07:16:06.357Z,101323.13
2022-09-09T07:21:34.097Z,101314.88
2022-09-09T07:27:00.738Z,101325.03
2022-09-09T07:32:26.638Z,101324.63
2022-09-09T07:37:51.782Z,101323.16
2022-09-09T07:43:20.083Z,101317.88
2022-09-09T07:48:46.314Z,101338.31
2022-09-09T07:54:13.493Z,101326.94
2022-09-09T07:59:42.091Z,101326.25
2022-09-09T08:05:07.221Z,101317.25
2022-09-09T08:10:32.564Z,101315.84
2022-09-09T08:16:06.733Z,101327.00
2022-09-09T08:21:34.219Z,101318.81
2022-09-09T08:26:58.792Z,101306.69
2022-09-09T08:32:24.992Z,101308.47
2022-09-09T08:37:51.485Z,101307.28
2022-09-09T08:43:18.718Z,101302.22
2022-09-09T08:48:58.026Z,101305.97
2022-09-09T08:54:48.336Z,101295.84
2022-09-09T09:00:11.950Z,101298.00
2022-09-09T09:05:49.503Z,101291.69
2022-09-09T09:11:14.039Z,101293.03
2022-09-09T09:16:44.745Z,101287.41
2022-09-09T09:22:19.609Z,101280.59
2022-09-09T09:27:51.735Z,101294.34
2022-09-09T09:33:20.854Z,101287.28
2022-09-09T09:44:48.797Z,101299.28
2022-09-09T09:50:22.190Z,101314.69
2022-09-09T09:55:55.786Z,101304.81
2022-09-09T10:01:24.856Z,101294.25
2022-09-09T10:06:49.933Z,101291.97
2022-09-09T10:12:27.185Z,101302.53
2022-09-09T10:18:00.104Z,101301.03
2022-09-09T10:23:41.994Z,101312.06
2022-09-09T10:29:34.280Z,101305.59
2022-09-09T10:35:04.903Z,101302.13
2022-09-09T10:40:35.173Z,101305.03
2022-09-09T10:46:08.691Z,101294.84
2022-09-09T10:51:43.199Z,101290.75
2022-09-09T10:57:14.810Z,101288.03
2022-09-09T11:02:43.163Z,101279.75
2022-09-09T11:08:14.709Z,101293.31
2022-09-09T11:13:46.760Z,101285.06
2022-09-09T11:19:22.351Z,101282.81
2022-09-09T11:24:52.479Z,101286.75
2022-09-09T11:30:38.114Z,101282.84
2022-09-09T11:36:32.701Z,101282.66
2022-09-09T11:42:09.062Z,101275.22
2022-09-09T11:47:35.178Z,101286.78
2022-09-09T11:53:23.606Z,101283.38
2022-09-09T11:58:58.715Z,101278.50
2022-09-09T12:04:32.507Z,101276.72
2022-09-09T12:10:03.235Z,101288.22
2022-09-09T12:15:31.044Z,101277.88
2022-09-09T12:21:05.609Z,101275.38
2022-09-09T12:26:37.108Z,101277.06
2022-09-09T12:32:07.962Z,101267.03
2022-09-09T12:37:37.123Z,101268.59
2022-09-09T12:43:03.826Z,101264.72
2022-09-09T12:48:37.818Z,101256.09
2022-09-09T12:54:02.940Z,101254.13
2022-09-09T12:59:37.335Z,101256.06
2022-09-09T13:05:15.852Z,101262.28
2022-09-09T13:11:00.304Z,101271.25
2022-09-09T13:16:32.759Z,101271.16
2022-09-09T13:21:57.940Z,101278.19
2022-09-09T13:27:30.091Z,101264.69
2022-09-09T13:33:08.607Z,101270.72
2022-09-09T13:38:35.627Z,101265.59
2022-09-09T13:44:00.624Z,101272.19
2022-09-09T13:49:30.931Z,101271.09
2022-09-09T13:54:56.685Z,101272.06
2022-09-09T14:00:25.107Z,101276.97
2022-09-09T14:05:51.121Z,101283.44
2022-09-09T14:11:15.952Z,101290.94
2022-09-09T14:16:39.890Z,101289.91
2022-09-09T14:22:06.140Z,101295.44
2022-09-09T14:27:31.231Z,101290.38
2022-09-09T14:32:54.986Z,101293.78
2022-09-09T14:38:21.030Z,101292.13
2022-09-09T14:43:46.578Z,101297.63
2022-09-09T14:49:11.319Z,101300.94
2022-09-09T14:54:36.626Z,101304.47
2022-09-09T15:00:01.201Z,101321.16
2022-09-09T15:05:26.243Z,101327.75
2022-09-09T15:10:52.015Z,101323.19
2022-09-09T15:16:17.721Z,101328.31
2022-09-09T15:21:43.184Z,101329.22
2022-09-09T15:27:08.767Z,101341.44
2022-09-09T15:32:34.259Z,101340.06
2022-09-09T15:37:58.304Z,101352.22
2022-09-09T15:43:24.406Z,101355.81
2022-09-09T15:48:52.391Z,101375.66
2022-09-09T15:54:21.825Z,101368.38
2022-09-09T15:59:48.270Z,101384.41
2022-09-09T16:05:13.287Z,101382.41
2022-09-09T16:10:37.742Z,101385.38
2022-09-09T16:16:04.227Z,101389.19
2022-09-09T16:21:30.342Z,101396.53
2022-09-09T16:26:56.497Z,101391.19
2022-09-09T16:32:23.361Z,101409.84
2022-09-09T16:37:47.390Z,101405.31
2022-09-09T16:43:13.915Z,101407.94
2022-09-09T16:48:39.958Z,101425.03
2022-09-09T16:54:07.839Z,101429.03
2022-09-09T16:59:33.587Z,101439.16
2022-09-09T17:05:00.383Z,101443.41
2022-09-09T17:10:25.359Z,101450.72
2022-09-09T17:15:50.560Z,101446.19
2022-09-09T17:21:19.346Z,101445.06
2022-09-09T17:26:46.011Z,101442.53
2022-09-09T17:32:11.023Z,101444.00
2022-09-09T17:37:37.154Z,101443.69
2022-09-09T17:43:02.486Z,101446.25
2022-09-09T17:48:26.972Z,101452.06
2022-09-09T17:53:55.845Z,101454.75
2022-09-09T17:59:21.374Z,101454.50
2022-09-09T18:04:46.132Z,101448.75
2022-09-09T18:10:12.495Z,101464.97
2022-09-09T18:15:49.162Z,101465.22
2022-09-09T18:21:15.701Z,101464.72
2022-09-09T18:26:43.074Z,101459.75
2022-09-09T18:32:08.341Z,101459.19
2022-09-09T18:37:34.181Z,101449.81
2022-09-09T18:43:00.558Z,101452.19
2022-09-09T18:48:24.926Z,101452.84
2022-09-09T18:53:52.475Z,101449.75
2022-09-09T18:59:20.294Z,101459.19
2022-09-09T19:04:48.117Z,101468.84
2022-09-09T19:10:12.310Z,101466.94
2022-09-09T19:15:40.050Z,101477.44
2022-09-09T19:21:11.870Z,101484.19
2022-09-09T19:26:40.580Z,101485.88
2022-09-09T19:37:51.992Z,101488.59
2022-09-09T19:43:16.808Z,101499.78
2022-09-09T19:48:43.639Z,101491.88
2022-09-09T19:54:09.644Z,101489.59
2022-09-09T19:59:34.205Z,101497.75
2022-09-09T20:04:59.799Z,101498.13
2022-09-09T20:10:24.930Z,101507.88
2022-09-09T20:15:58.015Z,101508.00
2022-09-09T20:21:26.200Z,101505.47
2022-09-09T20:26:51.807Z,101514.16
2022-09-09T20:32:17.799Z,101519.31
2022-09-09T20:37:43.298Z,101530.41
2022-09-09T20:43:13.034Z,101535.88
2022-09-09T20:48:37.548Z,101546.53
2022-09-09T20:54:05.866Z,101544.53
2022-09-09T20:59:31.995Z,101552.84
2022-09-09T21:04:56.361Z,101567.00
2022-09-09T21:10:26.381Z,101570.50
2022-09-09T21:15:52.050Z,101576.25
2022-09-09T21:21:19.254Z,101571.25
2022-09-09T21:26:46.225Z,101564.56
2022-09-09T21:32:10.234Z,101568.47
2022-09-09T21:37:34.334Z,101580.41
2022-09-09T21:43:04.325Z,101585.66
2022-09-09T21:48:28.326Z,101568.81
2022-09-09T21:53:57.410Z,101580.78
2022-09-09T21:59:23.162Z,101586.78
2022-09-09T22:04:48.239Z,101579.75
2022-09-09T22:10:12.949Z,101571.44
2022-09-09T22:15:42.310Z,101584.22
2022-09-09T22:21:08.393Z,101591.25
2022-09-09T22:26:34.892Z,101582.97
2022-09-09T22:32:00.620Z,101584.03
2022-09-09T22:37:26.332Z,101584.00
2022-09-09T22:42:52.995Z,101594.94
2022-09-09T22:48:18.919Z,101583.50
2022-09-09T22:53:45.476Z,101590.38
2022-09-09T22:59:12.541Z,101582.13
2022-09-09T23:04:39.298Z,101592.34
2022-09-09T23:10:04.801Z,101590.66
2022-09-09T23:15:31.480Z,101589.44
2022-09-09T23:21:00.645Z,101591.56
2022-09-09T23:26:25.873Z,101588.47
2022-09-09T23:31:49.774Z,101584.03
2022-09-09T23:37:15.855Z,101588.25
2022-09-09T23:42:40.219Z,101604.63
2022-09-09T23:48:04.674Z,101593.72
2022-09-09T23:53:31.196Z,101592.47
2022-09-09T23:58:56.652Z,101598.28
